createdAt,value
2022-07-25T00:00:09.409Z,5.83
2022-07-25T00:02:36.808Z,6.23
2022-07-25T00:05:04.916Z,7.23
2022-07-25T00:07:32.145Z,7.10
2022-07-25T00:09:59.345Z,8.77
2022-07-25T00:12:26.767Z,9.73
2022-07-25T00:14:53.909Z,10.60
2022-07-25T00:17:21.149Z,12.40
2022-07-25T00:19:48.327Z,11.67
2022-07-25T00:22:15.556Z,12.43
2022-07-25T00:24:42.698Z,14.13
2022-07-25T00:27:09.880Z,17.23
2022-07-25T00:29:37.167Z,16.53
2022-07-25T00:32:04.452Z,15.80
2022-07-25T00:34:31.619Z,13.20
2022-07-25T00:36:58.835Z,12.10
2022-07-25T00:39:26.026Z,10.73
2022-07-25T00:41:53.195Z,15.10
2022-07-25T00:44:27.255Z,14.13
2022-07-25T00:46:55.106Z,13.47
2022-07-25T00:49:22.842Z,12.17
2022-07-25T00:51:50.116Z,13.17
2022-07-25T00:54:17.336Z,13.70
2022-07-25T00:56:44.776Z,15.07
2022-07-25T00:59:12.055Z,15.10
2022-07-25T01:01:39.919Z,14.47
2022-07-25T01:04:07.835Z,15.83
2022-07-25T01:06:35.448Z,16.77
2022-07-25T01:09:02.771Z,16.57
2022-07-25T01:11:30.140Z,17.87
2022-07-25T01:13:57.313Z,16.70
2022-07-25T01:16:24.543Z,16.50
2022-07-25T01:18:51.989Z,16.80
2022-07-25T01:21:19.113Z,15.77
2022-07-25T01:23:46.385Z,16.13
2022-07-25T01:26:13.591Z,17.50
2022-07-25T01:28:40.777Z,17.23
2022-07-25T01:31:08.024Z,17.80
2022-07-25T01:33:35.322Z,20.37
2022-07-25T01:36:02.495Z,17.47
2022-07-25T01:38:29.668Z,20.20
2022-07-25T01:40:56.820Z,20.17
2022-07-25T01:43:23.939Z,21.20
2022-07-25T01:45:51.131Z,28.60
2022-07-25T01:48:18.296Z,23.70
2022-07-25T01:50:47.226Z,24.33
2022-07-25T01:53:16.210Z,31.37
2022-07-25T01:55:45.568Z,29.50
2022-07-25T01:58:12.717Z,37.00
2022-07-25T02:00:40.125Z,26.60
2022-07-25T02:03:26.208Z,28.33
2022-07-25T02:05:53.319Z,37.87
2022-07-25T02:08:20.457Z,35.87
2022-07-25T02:10:47.649Z,32.80
2022-07-25T02:13:14.786Z,40.10
2022-07-25T02:15:41.958Z,40.30
2022-07-25T02:18:09.118Z,36.63
2022-07-25T02:20:36.316Z,38.10
2022-07-25T02:23:03.770Z,48.83
2022-07-25T02:25:31.159Z,46.27
2022-07-25T02:27:58.329Z,63.63
2022-07-25T02:30:26.238Z,54.27
2022-07-25T02:32:53.924Z,47.20
2022-07-25T02:35:21.496Z,55.47
2022-07-25T02:37:48.633Z,54.17
2022-07-25T02:40:15.780Z,50.70
2022-07-25T02:42:43.087Z,52.70
2022-07-25T02:45:10.469Z,53.17
2022-07-25T02:47:37.638Z,53.73
2022-07-25T02:50:04.982Z,54.87
2022-07-25T02:52:32.142Z,55.87
2022-07-25T02:54:59.321Z,65.53
2022-07-25T02:57:26.472Z,57.53
2022-07-25T02:59:53.608Z,66.80
2022-07-25T03:02:20.762Z,56.80
2022-07-25T03:04:47.935Z,65.07
2022-07-25T03:07:15.085Z,68.43
2022-07-25T03:09:42.220Z,66.77
2022-07-25T03:12:09.422Z,64.57
2022-07-25T03:14:37.335Z,65.50
2022-07-25T03:17:04.565Z,59.47
2022-07-25T03:19:31.728Z,62.90
2022-07-25T03:21:58.857Z,62.57
2022-07-25T03:24:26.059Z,60.33
2022-07-25T03:26:53.184Z,60.73
2022-07-25T03:29:20.326Z,67.23
2022-07-25T03:31:47.533Z,61.37
2022-07-25T03:34:14.812Z,63.47
2022-07-25T03:36:41.945Z,63.13
2022-07-25T03:39:09.096Z,62.23
2022-07-25T03:41:36.241Z,65.90
2022-07-25T03:44:04.045Z,66.63
2022-07-25T03:46:31.605Z,67.70
2022-07-25T03:48:58.862Z,64.33
2022-07-25T03:51:26.085Z,69.50
2022-07-25T03:54:02.241Z,69.93
2022-07-25T03:56:43.646Z,66.93
2022-07-25T03:59:11.826Z,62.53
2022-07-25T04:01:39.028Z,68.57
2022-07-25T04:04:06.527Z,62.70
2022-07-25T04:06:34.063Z,65.93
2022-07-25T04:09:02.105Z,63.93
2022-07-25T04:11:30.906Z,66.23
2022-07-25T04:13:58.412Z,63.77
2022-07-25T04:16:25.608Z,65.90
2022-07-25T04:18:56.282Z,64.57
2022-07-25T04:21:24.842Z,70.97
2022-07-25T04:23:51.979Z,67.03
2022-07-25T04:26:19.533Z,64.60
2022-07-25T04:28:46.701Z,64.63
2022-07-25T04:31:13.870Z,64.33
2022-07-25T04:33:41.401Z,62.43
2022-07-25T04:36:08.732Z,59.30
2022-07-25T04:38:36.233Z,65.27
2022-07-25T04:41:04.099Z,60.63
2022-07-25T04:43:31.244Z,60.03
2022-07-25T04:45:58.495Z,64.30
2022-07-25T04:48:25.797Z,59.97
2022-07-25T04:50:53.206Z,57.50
2022-07-25T04:53:20.389Z,57.83
2022-07-25T04:55:47.546Z,54.87
2022-07-25T04:58:14.753Z,55.00
2022-07-25T05:00:41.989Z,50.17
2022-07-25T05:03:09.166Z,62.83
2022-07-25T05:05:36.367Z,50.63
2022-07-25T05:08:03.866Z,55.27
2022-07-25T05:10:31.279Z,49.03
2022-07-25T05:12:58.525Z,39.17
2022-07-25T05:15:25.686Z,42.27
2022-07-25T05:17:52.850Z,42.37
2022-07-25T05:20:20.111Z,40.87
2022-07-25T05:22:47.292Z,42.10
2022-07-25T05:25:14.485Z,36.33
2022-07-25T05:27:42.201Z,34.23
2022-07-25T05:30:10.115Z,35.03
2022-07-25T05:32:37.387Z,29.27
2022-07-25T05:35:05.171Z,31.57
2022-07-25T05:37:32.347Z,27.53
2022-07-25T05:39:59.504Z,28.30
2022-07-25T05:42:27.135Z,21.67
2022-07-25T05:44:54.295Z,18.20
2022-07-25T05:47:21.657Z,20.60
2022-07-25T05:49:48.780Z,19.80
2022-07-25T05:52:15.923Z,21.00
2022-07-25T05:54:43.100Z,15.57
2022-07-25T05:57:10.287Z,13.53
2022-07-25T05:59:37.573Z,13.43
2022-07-25T06:02:04.912Z,12.37
2022-07-25T06:04:32.115Z,18.07
2022-07-25T06:06:59.289Z,14.03
2022-07-25T06:09:26.452Z,14.20
2022-07-25T06:12:00.372Z,12.83
2022-07-25T06:14:28.611Z,12.10
2022-07-25T06:16:55.886Z,12.03
2022-07-25T06:19:23.235Z,10.77
2022-07-25T06:21:50.456Z,11.83
2022-07-25T06:24:17.597Z,12.27
2022-07-25T06:26:44.723Z,12.63
2022-07-25T06:29:12.272Z,11.27
2022-07-25T06:31:39.535Z,11.77
2022-07-25T06:34:07.417Z,11.63
2022-07-25T06:36:35.164Z,13.37
2022-07-25T06:39:02.629Z,12.47
2022-07-25T06:41:29.757Z,12.30
2022-07-25T06:43:56.936Z,12.40
2022-07-25T06:46:24.273Z,12.13
2022-07-25T06:48:51.591Z,10.50
2022-07-25T06:51:18.764Z,12.02
2022-07-25T06:53:45.970Z,12.17
2022-07-25T06:56:17.459Z,9.13
2022-07-25T06:58:44.976Z,9.77
2022-07-25T07:01:12.354Z,9.88
2022-07-25T07:03:40.344Z,10.23
2022-07-25T07:06:08.174Z,9.02
2022-07-25T07:08:35.588Z,10.77
2022-07-25T07:11:02.735Z,7.63
2022-07-25T07:13:29.938Z,9.65
2022-07-25T07:15:57.149Z,7.28
2022-07-25T07:18:24.393Z,7.93
2022-07-25T07:20:52.201Z,7.43
2022-07-25T07:23:19.432Z,8.10
2022-07-25T07:25:47.185Z,7.85
2022-07-25T07:28:14.844Z,8.10
2022-07-25T07:31:14.741Z,6.88
2022-07-25T07:33:29.209Z,6.55
2022-07-25T07:35:57.033Z,8.30
2022-07-25T07:38:27.082Z,5.30
2022-07-25T07:40:54.623Z,6.13
2022-07-25T07:43:25.025Z,6.72
2022-07-25T07:45:56.752Z,6.75
2022-07-25T07:48:23.932Z,5.78
2022-07-25T07:50:51.172Z,8.75
2022-07-25T07:53:18.299Z,5.88
2022-07-25T07:55:45.707Z,4.93
2022-07-25T07:58:15.674Z,5.30
2022-07-25T08:00:43.559Z,5.05
2022-07-25T08:03:12.131Z,5.13
2022-07-25T08:05:43.183Z,5.03
2022-07-25T08:08:11.382Z,4.93
2022-07-25T08:10:42.575Z,4.95
2022-07-25T08:13:22.719Z,4.75
2022-07-25T08:15:51.381Z,4.75
2022-07-25T08:18:18.910Z,6.18
2022-07-25T08:20:46.519Z,5.10
2022-07-25T08:23:14.457Z,5.35
2022-07-25T08:25:41.876Z,4.20
2022-07-25T08:28:09.222Z,4.65
2022-07-25T08:30:37.239Z,5.03
2022-07-25T08:33:06.466Z,4.82
2022-07-25T08:35:34.857Z,5.05
2022-07-25T08:38:02.604Z,5.53
2022-07-25T08:40:31.108Z,5.32
2022-07-25T08:42:58.551Z,5.30
2022-07-25T08:45:26.737Z,5.50
2022-07-25T08:47:54.632Z,5.05
2022-07-25T08:50:23.090Z,4.85
2022-07-25T08:52:50.871Z,5.22
2022-07-25T08:55:22.513Z,6.60
2022-07-25T08:57:50.656Z,5.00
2022-07-25T09:00:19.185Z,4.72
2022-07-25T09:02:52.385Z,5.03
2022-07-25T09:05:20.207Z,5.22
2022-07-25T09:07:47.339Z,5.10
2022-07-25T09:10:14.472Z,4.93
2022-07-25T09:12:41.915Z,4.57
2022-07-25T09:15:09.712Z,5.07
2022-07-25T09:17:38.457Z,5.75
2022-07-25T09:20:08.775Z,5.05
2022-07-25T09:22:44.321Z,6.20
2022-07-25T09:25:21.785Z,5.43
2022-07-25T09:27:48.990Z,6.00
2022-07-25T09:30:16.677Z,4.72
2022-07-25T09:32:43.859Z,5.85
2022-07-25T09:35:11.558Z,4.95
2022-07-25T09:37:38.724Z,5.50
2022-07-25T09:40:13.966Z,5.25
2022-07-25T09:42:42.813Z,5.53
2022-07-25T09:45:12.532Z,5.22
2022-07-25T09:47:51.057Z,5.30
2022-07-25T09:50:18.629Z,5.13
2022-07-25T09:52:46.165Z,4.70
2022-07-25T09:55:16.479Z,4.93
2022-07-25T09:57:47.266Z,4.50
2022-07-25T10:00:19.399Z,4.78
2022-07-25T10:02:55.758Z,5.00
2022-07-25T10:05:22.959Z,5.10
2022-07-25T10:07:51.178Z,5.15
2022-07-25T10:10:24.986Z,5.35
2022-07-25T10:13:10.279Z,4.97
2022-07-25T10:15:41.923Z,4.63
2022-07-25T10:18:09.109Z,4.93
2022-07-25T10:20:36.840Z,5.38
2022-07-25T10:23:04.184Z,5.15
2022-07-25T10:25:31.482Z,5.32
2022-07-25T10:28:08.249Z,5.35
2022-07-25T10:30:35.479Z,5.20
2022-07-25T10:33:06.694Z,4.93
2022-07-25T10:35:33.962Z,5.18
2022-07-25T10:38:04.163Z,4.90
2022-07-25T10:40:41.186Z,4.82
2022-07-25T10:43:15.691Z,5.22
2022-07-25T10:45:44.677Z,5.60
2022-07-25T10:48:13.014Z,5.10
2022-07-25T10:50:57.580Z,5.07
2022-07-25T10:53:48.431Z,4.93
2022-07-25T10:56:15.569Z,4.80
2022-07-25T10:58:51.859Z,4.90
2022-07-25T11:01:25.114Z,5.05
2022-07-25T11:03:53.346Z,5.45
2022-07-25T11:06:32.401Z,5.55
2022-07-25T11:09:01.242Z,5.35
2022-07-25T11:11:38.654Z,5.00
2022-07-25T11:14:06.700Z,4.80
2022-07-25T11:16:34.169Z,5.20
2022-07-25T11:19:01.355Z,5.10
2022-07-25T11:21:28.479Z,5.40
2022-07-25T11:23:55.638Z,5.05
2022-07-25T11:26:22.800Z,4.90
2022-07-25T11:28:50.999Z,5.32
2022-07-25T11:31:19.261Z,5.22
2022-07-25T11:33:48.037Z,5.22
2022-07-25T11:36:15.348Z,5.25
2022-07-25T11:38:43.119Z,5.72
2022-07-25T11:41:10.355Z,4.95
2022-07-25T11:43:37.487Z,5.30
2022-07-25T11:46:09.485Z,5.43
2022-07-25T11:48:38.885Z,4.97
2022-07-25T11:51:24.451Z,4.53
2022-07-25T11:53:52.069Z,5.20
2022-07-25T11:56:41.306Z,4.95
2022-07-25T11:59:08.284Z,5.07
2022-07-25T12:01:39.951Z,6.35
2022-07-25T12:04:17.012Z,5.20
2022-07-25T12:06:48.162Z,4.90
2022-07-25T12:09:19.237Z,4.60
2022-07-25T12:11:47.128Z,5.68
2022-07-25T12:14:14.849Z,6.00
2022-07-25T12:16:42.292Z,4.85
2022-07-25T12:19:10.685Z,5.40
2022-07-25T12:21:38.077Z,5.40
2022-07-25T12:24:05.536Z,6.05
2022-07-25T12:26:32.694Z,5.35
2022-07-25T12:28:59.840Z,5.55
2022-07-25T12:31:28.672Z,4.90
2022-07-25T12:33:56.165Z,5.05
2022-07-25T12:36:23.373Z,4.75
2022-07-25T12:38:50.565Z,5.22
2022-07-25T12:41:22.527Z,4.75
2022-07-25T12:43:49.884Z,4.97
2022-07-25T12:46:17.451Z,4.68
2022-07-25T12:48:44.845Z,5.00
2022-07-25T12:51:12.074Z,4.75
2022-07-25T12:53:42.467Z,4.72
2022-07-25T12:56:09.975Z,5.55
2022-07-25T12:58:37.584Z,4.78
2022-07-25T13:01:06.109Z,4.85
2022-07-25T13:03:33.514Z,6.45
2022-07-25T13:06:00.673Z,5.20
2022-07-25T13:08:27.948Z,4.97
2022-07-25T13:10:55.159Z,5.18
2022-07-25T13:13:22.291Z,6.50
2022-07-25T13:15:49.553Z,5.53
2022-07-25T13:18:16.736Z,5.10
2022-07-25T13:20:43.919Z,5.18
2022-07-25T13:23:11.083Z,5.88
2022-07-25T13:25:38.317Z,5.57
2022-07-25T13:28:08.590Z,6.07
2022-07-25T13:30:38.332Z,5.30
2022-07-25T13:33:05.489Z,5.88
2022-07-25T13:35:38.881Z,5.80
2022-07-25T13:38:06.760Z,5.60
2022-07-25T13:40:33.943Z,5.40
2022-07-25T13:43:01.116Z,5.80
2022-07-25T13:45:29.141Z,5.38
2022-07-25T13:48:19.044Z,5.50
2022-07-25T13:50:44.326Z,6.35
2022-07-25T13:53:11.532Z,5.55
2022-07-25T13:55:39.150Z,5.95
2022-07-25T13:58:06.661Z,5.88
2022-07-25T14:00:33.798Z,5.85
2022-07-25T14:03:00.983Z,5.57
2022-07-25T14:05:28.185Z,5.85
2022-07-25T14:07:55.353Z,5.43
2022-07-25T14:10:22.529Z,5.22
2022-07-25T14:12:50.204Z,6.53
2022-07-25T14:15:17.615Z,6.70
2022-07-25T14:17:45.083Z,5.60
2022-07-25T14:20:12.988Z,5.57
2022-07-25T14:22:42.135Z,5.53
2022-07-25T14:25:09.884Z,5.15
2022-07-25T14:27:37.487Z,5.55
2022-07-25T14:30:05.735Z,5.22
2022-07-25T14:32:32.913Z,5.30
2022-07-25T14:35:01.896Z,5.10
2022-07-25T14:37:31.303Z,5.30
2022-07-25T14:40:01.966Z,5.18
2022-07-25T14:42:30.123Z,5.47
2022-07-25T14:44:57.280Z,5.28
2022-07-25T14:47:26.672Z,5.25
2022-07-25T14:49:54.578Z,5.25
2022-07-25T14:52:22.626Z,5.18
2022-07-25T14:54:49.992Z,4.93
2022-07-25T14:57:17.110Z,5.18
2022-07-25T14:59:44.247Z,5.35
2022-07-25T15:02:11.492Z,5.15
2022-07-25T15:04:38.749Z,5.65
2022-07-25T15:07:06.917Z,5.35
2022-07-25T15:09:34.203Z,5.45
2022-07-25T15:12:01.353Z,5.68
2022-07-25T15:14:31.639Z,5.18
2022-07-25T15:16:58.846Z,5.00
2022-07-25T15:19:26.381Z,5.20
2022-07-25T15:21:53.842Z,5.00
2022-07-25T15:24:24.551Z,5.18
2022-07-25T15:26:54.355Z,5.20
2022-07-25T15:29:21.494Z,4.63
2022-07-25T15:31:49.687Z,4.80
2022-07-25T15:34:17.015Z,5.00
2022-07-25T15:36:44.216Z,5.43
2022-07-25T15:39:11.741Z,5.15
2022-07-25T15:41:39.048Z,5.15
2022-07-25T15:44:06.431Z,4.63
2022-07-25T15:46:33.899Z,5.28
2022-07-25T15:49:01.420Z,5.97
2022-07-25T15:51:28.656Z,6.00
2022-07-25T15:53:55.908Z,5.57
2022-07-25T15:56:23.109Z,5.40
2022-07-25T15:58:50.357Z,4.88
2022-07-25T16:01:17.824Z,5.10
2022-07-25T16:03:45.459Z,4.68
2022-07-25T16:06:18.439Z,5.07
2022-07-25T16:08:46.017Z,5.40
2022-07-25T16:11:13.155Z,5.25
2022-07-25T16:13:41.866Z,5.82
2022-07-25T16:16:10.102Z,4.90
2022-07-25T16:18:37.712Z,5.15
2022-07-25T16:21:05.376Z,4.82
2022-07-25T16:23:37.496Z,5.15
2022-07-25T16:26:06.238Z,5.10
2022-07-25T16:28:33.898Z,4.78
2022-07-25T16:31:01.132Z,5.53
2022-07-25T16:33:28.470Z,4.18
2022-07-25T16:35:55.598Z,5.22
2022-07-25T16:38:23.005Z,5.00
2022-07-25T16:40:50.192Z,4.63
2022-07-25T16:43:17.331Z,4.50
2022-07-25T16:45:44.516Z,4.60
2022-07-25T16:48:11.780Z,5.47
2022-07-25T16:50:39.191Z,4.70
2022-07-25T16:53:06.594Z,4.55
2022-07-25T16:55:34.405Z,4.35
2022-07-25T16:58:01.628Z,4.78
2022-07-25T17:00:28.996Z,4.72
2022-07-25T17:02:56.146Z,4.70
2022-07-25T17:05:23.395Z,5.18
2022-07-25T17:07:57.043Z,4.82
2022-07-25T17:10:26.049Z,5.05
2022-07-25T17:12:53.529Z,4.88
2022-07-25T17:15:20.732Z,4.63
2022-07-25T17:17:47.977Z,5.55
2022-07-25T17:20:15.240Z,5.55
2022-07-25T17:22:42.391Z,4.60
2022-07-25T17:25:09.741Z,4.53
2022-07-25T17:27:37.305Z,4.32
2022-07-25T17:30:05.072Z,4.93
2022-07-25T17:32:32.274Z,4.22
2022-07-25T17:34:59.717Z,4.47
2022-07-25T17:37:27.767Z,5.00
2022-07-25T17:39:55.255Z,5.78
2022-07-25T17:42:22.617Z,4.32
2022-07-25T17:44:50.638Z,4.32
2022-07-25T17:47:18.269Z,4.30
2022-07-25T17:49:45.600Z,4.90
2022-07-25T17:52:12.855Z,5.28
2022-07-25T17:54:40.347Z,5.85
2022-07-25T17:57:07.560Z,4.82
2022-07-25T17:59:35.002Z,4.43
2022-07-25T18:02:03.386Z,4.53
2022-07-25T18:04:30.689Z,4.30
2022-07-25T18:06:57.819Z,4.57
2022-07-25T18:09:24.929Z,4.97
2022-07-25T18:11:52.195Z,6.10
2022-07-25T18:14:19.354Z,4.50
2022-07-25T18:16:46.622Z,5.03
2022-07-25T18:19:14.093Z,9.13
2022-07-25T18:21:41.292Z,6.55
2022-07-25T18:24:08.830Z,7.95
2022-07-25T18:26:36.343Z,10.57
2022-07-25T18:29:03.572Z,13.05
2022-07-25T18:31:30.764Z,6.80
2022-07-25T18:33:57.949Z,6.93
2022-07-25T18:36:25.439Z,8.88
2022-07-25T18:38:53.828Z,7.78
2022-07-25T18:41:30.059Z,7.43
2022-07-25T18:43:57.682Z,5.60
2022-07-25T18:46:25.011Z,6.13
2022-07-25T18:48:52.514Z,5.20
2022-07-25T18:51:20.948Z,6.75
2022-07-25T18:53:48.915Z,6.93
2022-07-25T18:56:16.810Z,37.20
2022-07-25T18:58:44.432Z,82.68
2022-07-25T19:01:12.314Z,125.93
2022-07-25T19:03:40.631Z,176.93
2022-07-25T19:06:08.782Z,245.30
2022-07-25T19:08:36.027Z,261.70
2022-07-25T19:11:03.231Z,232.05
2022-07-25T19:13:48.922Z,233.35
2022-07-25T19:16:17.062Z,217.02
2022-07-25T19:18:44.279Z,222.55
2022-07-25T19:21:11.400Z,232.13
2022-07-25T19:23:38.569Z,252.60
2022-07-25T19:26:06.232Z,258.27
2022-07-25T19:28:33.709Z,258.47
2022-07-25T19:31:00.919Z,265.83
2022-07-25T19:33:35.857Z,272.87
2022-07-25T19:36:04.083Z,272.83
2022-07-25T19:38:31.381Z,275.47
2022-07-25T19:40:58.951Z,279.57
2022-07-25T19:43:26.129Z,296.97
2022-07-25T19:45:53.406Z,305.58
2022-07-25T19:48:23.700Z,304.52
2022-07-25T19:50:53.940Z,324.77
2022-07-25T19:53:24.280Z,325.40
2022-07-25T19:55:55.304Z,332.10
2022-07-25T19:58:22.416Z,332.20
2022-07-25T20:00:49.622Z,273.55
2022-07-25T20:03:16.779Z,154.17
2022-07-25T20:05:50.493Z,89.83
2022-07-25T20:08:18.782Z,50.20
2022-07-25T20:10:46.031Z,21.60
2022-07-25T20:13:13.177Z,16.83
2022-07-25T20:15:40.438Z,12.20
2022-07-25T20:18:07.566Z,11.43
2022-07-25T20:20:34.715Z,10.13
2022-07-25T20:23:01.973Z,12.13
2022-07-25T20:25:29.179Z,14.67
2022-07-25T20:27:56.521Z,10.83
2022-07-25T20:30:23.721Z,10.67
2022-07-25T20:32:50.908Z,12.77
2022-07-25T20:35:18.081Z,12.53
2022-07-25T20:37:45.207Z,11.87
2022-07-25T20:40:12.982Z,14.90
2022-07-25T20:42:40.360Z,13.67
2022-07-25T20:45:07.978Z,13.93
2022-07-25T20:47:35.209Z,12.43
2022-07-25T20:50:02.502Z,12.30
2022-07-25T20:52:30.330Z,12.40
2022-07-25T20:54:57.548Z,14.43
2022-07-25T20:57:24.817Z,12.67
2022-07-25T20:59:51.962Z,13.70
2022-07-25T21:02:19.223Z,17.27
2022-07-25T21:04:48.427Z,14.87
2022-07-25T21:07:16.622Z,13.20
2022-07-25T21:09:43.801Z,14.63
2022-07-25T21:12:11.091Z,15.77
2022-07-25T21:14:38.227Z,24.90
2022-07-25T21:17:05.484Z,23.70
2022-07-25T21:19:32.694Z,22.17
2022-07-25T21:21:59.896Z,43.77
2022-07-25T21:24:27.262Z,47.70
2022-07-25T21:26:54.387Z,39.83
2022-07-25T21:29:21.562Z,35.00
2022-07-25T21:31:48.922Z,30.70
2022-07-25T21:34:16.210Z,57.03
2022-07-25T21:36:43.520Z,71.60
2022-07-25T21:39:10.918Z,68.90
2022-07-25T21:41:38.256Z,80.77
2022-07-25T21:44:05.559Z,77.90
2022-07-25T21:46:32.847Z,79.83
2022-07-25T21:49:25.499Z,83.77
2022-07-25T21:52:06.160Z,95.03
2022-07-25T21:54:33.607Z,114.73
2022-07-25T21:57:00.731Z,113.40
2022-07-25T21:59:27.870Z,119.17
2022-07-25T22:01:55.057Z,124.57
2022-07-25T22:04:22.272Z,132.20
2022-07-25T22:06:49.467Z,132.47
2022-07-25T22:09:16.593Z,138.57
2022-07-25T22:11:46.455Z,152.30
2022-07-25T22:14:14.116Z,139.53
2022-07-25T22:16:41.656Z,154.73
2022-07-25T22:19:09.494Z,145.30
2022-07-25T22:21:36.912Z,153.07
2022-07-25T22:24:04.092Z,160.27
2022-07-25T22:26:31.264Z,151.00
2022-07-25T22:28:58.494Z,151.37
2022-07-25T22:31:25.741Z,136.80
2022-07-25T22:33:53.095Z,133.03
2022-07-25T22:36:20.619Z,88.37
2022-07-25T22:38:47.830Z,42.57
2022-07-25T22:41:15.007Z,20.93
2022-07-25T22:43:56.409Z,14.00
2022-07-25T22:46:26.616Z,9.03
2022-07-25T22:48:53.878Z,10.70
2022-07-25T22:51:21.074Z,7.63
2022-07-25T22:53:48.316Z,6.83
2022-07-25T22:56:16.772Z,6.73
2022-07-25T22:58:44.219Z,7.53
2022-07-25T23:01:13.843Z,6.00
2022-07-25T23:03:41.000Z,7.60
2022-07-25T23:06:08.264Z,7.20
2022-07-25T23:08:35.388Z,6.00
2022-07-25T23:11:03.576Z,9.57
2022-07-25T23:15:59.127Z,14.07
2022-07-25T23:18:26.381Z,16.97
2022-07-25T23:20:53.507Z,18.63
2022-07-25T23:23:20.632Z,22.40
2022-07-25T23:25:48.118Z,19.47
2022-07-25T23:28:15.243Z,21.60
2022-07-25T23:30:42.429Z,21.80
2022-07-25T23:33:09.629Z,21.57
2022-07-25T23:35:36.942Z,21.53
2022-07-25T23:38:04.460Z,20.53
2022-07-25T23:40:31.813Z,19.40
2022-07-25T23:42:58.976Z,17.33
2022-07-25T23:45:27.721Z,16.40
2022-07-25T23:47:56.355Z,17.37
2022-07-25T23:50:24.006Z,17.10
2022-07-25T23:52:51.222Z,14.97
2022-07-25T23:55:18.511Z,17.27
2022-07-25T23:57:45.670Z,12.13
